Wenceslao Escalante, Argentina
Current Conditions -  °F | °C
As of 9:00 AM on Tuesday 21 Oct 2014 (Local Time) from SAOC Reporting Station
Clear Clear  
Wind Chill: 72°   Ceiling: Unl
Heat Index: 72°   Visibility: 6mi
Dew Point: 54°   Wind: 22mph
Humidity: 53%   Direction: 340°NNW
Pressure: 30"   Gusts: NA
Location:  33.17°S, 62.75°W
Report Text: SAOC 211200Z 34019KT CAVOK 22/12 Q1016
Loading
Personal Weather Stations






























Interactive Weather Map
Tropical Storm Tracking
New forecast layout! Learn more

10-Day Weather Forecast

Advertisements
Track Severe Weather on mobile